Terminal Aerodrome Forecast
Issued by NWS Charleston, SC

Home | Current Version | Previous Version | Text Only | Print | Product List | Glossary On
Versions: 1 2 3 4 5 6 7 8 9 10 11 12 13 14 15 16 17 18 19 20 21 22 23 24 25 26 27 28 29 30 31 32
000
FTUS42 KCHS 200529
TAFSAV
TAF
KSAV 200529Z 2006/2106 23008KT P6SM SCT250
      TEMPO 2010/2013 FEW009 BKN015
     FM201400 24013G18KT P6SM SCT045
     FM210000 23010KT P6SM SCT040 BKN200=

USA.gov is the U.S. government's official web portal to all federal, state and local government web resources and services.